Terminal Aerodrome Forecast
Issued by NWS Lake Charles, LA

Home | Current Version | Previous Version | Text Only | Print | Product List | Glossary On
Versions: 1 2 3 4 5 6 7 8 9 10 11 12 13 14 15 16 17
186
FTUS44 KLCH 260520
TAFAEX
TAF
KAEX 260520Z 2606/2706 17003KT P6SM FEW120
      TEMPO 2610/2613 4SM BR
     FM261500 VRB04KT P6SM SKC=

USA.gov is the U.S. government's official web portal to all federal, state and local government web resources and services.